Saarbruecken, Germany

12:37 PM CEST on September 16, 2014 (GMT +0200)
Voelklingen | Change Station
CLOSE
Current Station
Personal Weather Station
Location: Geislautern, Saarland
Elevation: 719 ft
Nearby Weather Stations

Elev 719 ft 49.24 °N, 6.82 °E | Updated 37 minutes ago

Scattered Clouds
Scattered Clouds
69.6 °F
Feels Like 69.6 °F
N
2.0
Wind Variable Wind from SW
Gusts 0.0 mph

Today
High -- | Low -- °F
--% Chance of Precip.
Yesterday
High -- | Low -- °F
Precip. -- in
7:09 AM 7:43 PM
Waning Gibbous, 46% visible
Pressure 30.01 in
Visibility 6.2 miles
Clouds Few 1700 ft
Scattered Clouds 30000 ft
Dew Point 63 °F
Humidity 79%
Rainfall 0.00 in
Snow Depth Not available.
UV 4 out of 12
Pollen Not available.
Air Quality Not available.
Flu Activity Not available.
METAR EDDR 161020Z VRB03KT 9999 FEW017 SCT300 20/15 Q1016 NOSIG

More Conditions Fewer Conditions

Pressure 30.01 in
Visibility 6.2 miles
Clouds Few 1700 ft
Scattered Clouds 30000 ft
Dew Point 63 °F
Humidity 79%
Rainfall 0.00 in
Snow Depth Not available.
UV 4 out of 12
Pollen Not available.
Air Quality Not available.
Flu Activity Not available.
METAR EDDR 161020Z VRB03KT 9999 FEW017 SCT300 20/15 Q1016 NOSIG

More Conditions Fewer Conditions

10-Day Weather Forecast

Almanac

Astronomy

Sep. 16, 2014 Rise Set
Actual Time 7:09 AM CEST 7:43 PM CEST
Civil Twilight 6:37 AM CEST 8:15 PM CEST
Nautical Twilight 5:59 AM CEST 8:53 PM CEST
Astronomical Twilight 5:19 AM CEST 9:33 PM CEST
Moon No Moon Rise 3:17 PM CEST
Length of Visible Light 13h 37m
Length of Day
12h 33m
Tomorrow will be 3m 37s shorter.
Waning Gibbous, 46% of the Moon is Illuminated
Today
Waning Gibbous
Sep 24
New
Oct 1
First Quarter
Oct 8
Full
Oct 15
Last Quarter

Yesterday's Extremes

Country Highs Country Lows

Community

WunderPhotos

Upload Photos

1,753,720 photos uploaded!

WunderBlogs® & News

Nearby

Snow Depth

Not available.

Earthquake Activity

City Distance Mag. Time & Date
No recent earthquake activity has been reported nearby.
Minimum magnitude displayed is 2.5.

Coastal Water Temperatures

Place Temperature
No Stations Reporting

Nearby Weather Stations